sensor_id;sensor_type;location;lat;lon;timestamp;pressure;altitude;pressure_sealevel;temperature;humidity
46045;BME280;31781;54.094;13.428;2023-04-25T00:00:19;100336.28;;;10.05;63.54
46045;BME280;31781;54.094;13.428;2023-04-25T00:02:21;100344.44;;;10.05;63.92
46045;BME280;31781;54.094;13.428;2023-04-25T00:04:23;100347.16;;;10.05;63.62
46045;BME280;31781;54.094;13.428;2023-04-25T00:06:25;100338.78;;;10.07;63.57
46045;BME280;31781;54.094;13.428;2023-04-25T00:08:26;100334.63;;;10.04;64.03
46045;BME280;31781;54.094;13.428;2023-04-25T00:10:28;100333.56;;;10.05;64.11
46045;BME280;31781;54.094;13.428;2023-04-25T00:12:30;100332.50;;;10.06;64.08
46045;BME280;31781;54.094;13.428;2023-04-25T00:14:33;100332.31;;;10.08;64.58
46045;BME280;31781;54.094;13.428;2023-04-25T00:16:34;100327.72;;;10.08;64.03
46045;BME280;31781;54.094;13.428;2023-04-25T00:18:39;100331.03;;;10.10;64.43
46045;BME280;31781;54.094;13.428;2023-04-25T00:20:40;100333.97;;;10.09;64.05
46045;BME280;31781;54.094;13.428;2023-04-25T00:22:42;100331.03;;;10.10;64.38
46045;BME280;31781;54.094;13.428;2023-04-25T00:24:43;100331.03;;;10.10;64.46
46045;BME280;31781;54.094;13.428;2023-04-25T00:26:45;100328.31;;;10.10;64.71
46045;BME280;31781;54.094;13.428;2023-04-25T00:28:47;100328.13;;;10.12;64.61
46045;BME280;31781;54.094;13.428;2023-04-25T00:30:50;100336.28;;;10.12;64.32
46045;BME280;31781;54.094;13.428;2023-04-25T00:32:52;100330.59;;;10.13;64.77
46045;BME280;31781;54.094;13.428;2023-04-25T00:34:54;100328.97;;;10.12;65.12
46045;BME280;31781;54.094;13.428;2023-04-25T00:36:56;100340.47;;;10.14;64.83
46045;BME280;31781;54.094;13.428;2023-04-25T00:38:57;100331.28;;;10.15;64.42
46045;BME280;31781;54.094;13.428;2023-04-25T00:40:59;100328.56;;;10.15;63.83
46045;BME280;31781;54.094;13.428;2023-04-25T00:43:01;100331.88;;;10.17;64.63
46045;BME280;31781;54.094;13.428;2023-04-25T00:45:05;100336.47;;;10.17;65.38
46045;BME280;31781;54.094;13.428;2023-04-25T00:47:08;100337.94;;;10.19;64.52
46045;BME280;31781;54.094;13.428;2023-04-25T00:49:12;100347.53;;;10.22;64.46
46045;BME280;31781;54.094;13.428;2023-04-25T00:51:16;100334.78;;;10.22;64.40
46045;BME280;31781;54.094;13.428;2023-04-25T00:53:21;100336.47;;;10.23;64.54
46045;BME280;31781;54.094;13.428;2023-04-25T00:55:22;100336.22;;;10.25;64.97
46045;BME280;31781;54.094;13.428;2023-04-25T00:57:24;100337.66;;;10.27;64.68
46045;BME280;31781;54.094;13.428;2023-04-25T00:59:27;100338.75;;;10.27;64.82
46045;BME280;31781;54.094;13.428;2023-04-25T01:01:29;100332.22;;;10.27;64.61
46045;BME280;31781;54.094;13.428;2023-04-25T01:03:33;100342.06;;;10.29;64.10
46045;BME280;31781;54.094;13.428;2023-04-25T01:05:36;100340.38;;;10.27;64.54
46045;BME280;31781;54.094;13.428;2023-04-25T01:07:37;100341.47;;;10.27;64.94
46045;BME280;31781;54.094;13.428;2023-04-25T01:09:39;100348.13;;;10.31;65.00
46045;BME280;31781;54.094;13.428;2023-04-25T01:11:42;100349.19;;;10.30;65.00
46045;BME280;31781;54.094;13.428;2023-04-25T01:13:43;100351.66;;;10.31;65.07
46045;BME280;31781;54.094;13.428;2023-04-25T01:15:45;100356.06;;;10.32;65.19
46045;BME280;31781;54.094;13.428;2023-04-25T01:17:47;100350.84;;;10.31;65.84
46045;BME280;31781;54.094;13.428;2023-04-25T01:19:50;100351.66;;;10.31;65.82
46045;BME280;31781;54.094;13.428;2023-04-25T01:21:53;100359.63;;;10.33;65.88
46045;BME280;31781;54.094;13.428;2023-04-25T01:23:55;100355.22;;;10.32;66.13
46045;BME280;31781;54.094;13.428;2023-04-25T01:25:57;100351.66;;;10.31;65.83
46045;BME280;31781;54.094;13.428;2023-04-25T01:27:58;100357.94;;;10.32;66.23
46045;BME280;31781;54.094;13.428;2023-04-25T01:30:00;100355.22;;;10.32;66.00
46045;BME280;31781;54.094;13.428;2023-04-25T01:32:02;100362.78;;;10.30;65.82
46045;BME280;31781;54.094;13.428;2023-04-25T01:34:04;100368.22;;;10.30;66.11
46045;BME280;31781;54.094;13.428;2023-04-25T01:36:06;100360.25;;;10.28;66.25
46045;BME280;31781;54.094;13.428;2023-04-25T01:38:11;100362.78;;;10.30;66.17
46045;BME280;31781;54.094;13.428;2023-04-25T01:40:13;100362.13;;;10.27;66.00
46045;BME280;31781;54.094;13.428;2023-04-25T01:42:15;100368.22;;;10.30;66.28
46045;BME280;31781;54.094;13.428;2023-04-25T01:44:16;100366.78;;;10.27;66.42
46045;BME280;31781;54.094;13.428;2023-04-25T01:46:18;100363.81;;;10.29;66.21
46045;BME280;31781;54.094;13.428;2023-04-25T01:48:20;100362.97;;;10.28;65.86
46045;BME280;31781;54.094;13.428;2023-04-25T01:50:22;100361.09;;;10.29;66.41
46045;BME280;31781;54.094;13.428;2023-04-25T01:52:24;100364.66;;;10.29;65.75
46045;BME280;31781;54.094;13.428;2023-04-25T01:54:27;100363.81;;;10.29;66.10
46045;BME280;31781;54.094;13.428;2023-04-25T01:56:30;100361.94;;;10.29;66.16
46045;BME280;31781;54.094;13.428;2023-04-25T01:58:31;100371.13;;;10.28;67.02
46045;BME280;31781;54.094;13.428;2023-04-25T02:00:33;100363.81;;;10.29;66.36
46045;BME280;31781;54.094;13.428;2023-04-25T02:02:35;100371.97;;;10.29;66.84
46045;BME280;31781;54.094;13.428;2023-04-25T02:04:36;100372.81;;;10.29;67.03
46045;BME280;31781;54.094;13.428;2023-04-25T02:06:38;100373.03;;;10.27;66.74
46045;BME280;31781;54.094;13.428;2023-04-25T02:08:40;100373.84;;;10.28;67.52
46045;BME280;31781;54.094;13.428;2023-04-25T02:10:43;100372.22;;;10.27;67.97
46045;BME280;31781;54.094;13.428;2023-04-25T02:12:45;100375.75;;;10.27;68.04
46045;BME280;31781;54.094;13.428;2023-04-25T02:14:46;100378.69;;;10.26;68.25
46045;BME280;31781;54.094;13.428;2023-04-25T02:16:50;100380.56;;;10.25;68.19
46045;BME280;31781;54.094;13.428;2023-04-25T02:18:51;100378.06;;;10.24;68.79
46045;BME280;31781;54.094;13.428;2023-04-25T02:20:53;100380.78;;;10.24;69.21
46045;BME280;31781;54.094;13.428;2023-04-25T02:22:55;100378.28;;;10.22;69.24
46045;BME280;31781;54.094;13.428;2023-04-25T02:24:56;100382.88;;;10.22;69.40
46045;BME280;31781;54.094;13.428;2023-04-25T02:26:59;100380.38;;;10.20;69.15
46045;BME280;31781;54.094;13.428;2023-04-25T02:29:01;100380.59;;;10.19;69.30
46045;BME280;31781;54.094;13.428;2023-04-25T02:31:03;100376.22;;;10.18;69.11
46045;BME280;31781;54.094;13.428;2023-04-25T02:33:04;100375.59;;;10.16;69.36
46045;BME280;31781;54.094;13.428;2023-04-25T02:35:07;100374.94;;;10.14;69.35
46045;BME280;31781;54.094;13.428;2023-04-25T02:37:08;100371.63;;;10.12;68.86
46045;BME280;31781;54.094;13.428;2023-04-25T02:39:10;100379.97;;;10.10;69.34
46045;BME280;31781;54.094;13.428;2023-04-25T02:41:12;100376.00;;;10.06;69.81
46045;BME280;31781;54.094;13.428;2023-04-25T02:43:14;100373.53;;;10.05;69.07
46045;BME280;31781;54.094;13.428;2023-04-25T02:45:17;100374.56;;;10.04;69.05
46045;BME280;31781;54.094;13.428;2023-04-25T02:47:18;100366.63;;;10.02;69.59
46045;BME280;31781;54.094;13.428;2023-04-25T02:49:20;100373.31;;;10.00;69.27
46045;BME280;31781;54.094;13.428;2023-04-25T02:51:22;100372.69;;;9.98;69.52
46045;BME280;31781;54.094;13.428;2023-04-25T02:53:24;100368.53;;;9.95;69.65
46045;BME280;31781;54.094;13.428;2023-04-25T02:55:25;100376.91;;;9.94;69.25
46045;BME280;31781;54.094;13.428;2023-04-25T02:57:28;100375.00;;;9.94;69.12
46045;BME280;31781;54.094;13.428;2023-04-25T02:59:32;100379.81;;;9.92;69.02
46045;BME280;31781;54.094;13.428;2023-04-25T03:01:33;100372.94;;;9.90;69.19
46045;BME280;31781;54.094;13.428;2023-04-25T03:03:35;100371.47;;;9.87;69.08
46045;BME280;31781;54.094;13.428;2023-04-25T03:05:36;100369.81;;;9.86;69.43
46045;BME280;31781;54.094;13.428;2023-04-25T03:07:38;100376.28;;;9.85;69.36
46045;BME280;31781;54.094;13.428;2023-04-25T03:09:40;100375.66;;;9.83;69.58
46045;BME280;31781;54.094;13.428;2023-04-25T03:11:42;100370.66;;;9.80;69.32
46045;BME280;31781;54.094;13.428;2023-04-25T03:13:43;100378.81;;;9.80;69.76
46045;BME280;31781;54.094;13.428;2023-04-25T03:15:46;100374.44;;;9.79;69.29
46045;BME280;31781;54.094;13.428;2023-04-25T03:17:48;100373.81;;;9.77;69.64
46045;BME280;31781;54.094;13.428;2023-04-25T03:19:49;100380.91;;;9.78;69.49
46045;BME280;31781;54.094;13.428;2023-04-25T03:21:51;100370.47;;;9.75;69.01
46045;BME280;31781;54.094;13.428;2023-04-25T03:23:53;100374.63;;;9.77;69.54
46045;BME280;31781;54.094;13.428;2023-04-25T03:25:54;100371.28;;;9.75;69.44
46045;BME280;31781;54.094;13.428;2023-04-25T03:27:56;100374.22;;;9.74;69.42
46045;BME280;31781;54.094;13.428;2023-04-25T03:29:57;100375.06;;;9.74;69.24
46045;BME280;31781;54.094;13.428;2023-04-25T03:32:01;100373.41;;;9.73;69.39
46045;BME280;31781;54.094;13.428;2023-04-25T03:34:02;100372.78;;;9.71;69.44
46045;BME280;31781;54.094;13.428;2023-04-25T03:36:05;100371.94;;;9.71;69.18
46045;BME280;31781;54.094;13.428;2023-04-25T03:38:06;100374.88;;;9.69;68.63
46045;BME280;31781;54.094;13.428;2023-04-25T03:40:08;100379.47;;;9.69;67.98
46045;BME280;31781;54.094;13.428;2023-04-25T03:42:10;100379.69;;;9.67;68.38
46045;BME280;31781;54.094;13.428;2023-04-25T03:44:12;100372.78;;;9.65;68.08
46045;BME280;31781;54.094;13.428;2023-04-25T03:46:13;100385.31;;;9.66;68.16
46045;BME280;31781;54.094;13.428;2023-04-25T03:48:17;100382.84;;;9.64;67.54
46045;BME280;31781;54.094;13.428;2023-04-25T03:50:18;100382.19;;;9.62;68.29
46045;BME280;31781;54.094;13.428;2023-04-25T03:52:20;100391.38;;;9.61;67.63
46045;BME280;31781;54.094;13.428;2023-04-25T03:54:21;100392.03;;;9.63;67.43
46045;BME280;31781;54.094;13.428;2023-04-25T03:56:23;100392.22;;;9.62;67.72
46045;BME280;31781;54.094;13.428;2023-04-25T03:58:25;100384.06;;;9.62;67.82
46045;BME280;31781;54.094;13.428;2023-04-25T04:00:26;100389.50;;;9.62;67.76
46045;BME280;31781;54.094;13.428;2023-04-25T04:02:33;100398.69;;;9.61;67.18
46045;BME280;31781;54.094;13.428;2023-04-25T04:04:37;100399.53;;;9.61;67.24
46045;BME280;31781;54.094;13.428;2023-04-25T04:06:39;100394.94;;;9.62;67.80
46045;BME280;31781;54.094;13.428;2023-04-25T04:08:40;100400.16;;;9.63;67.07
46045;BME280;31781;54.094;13.428;2023-04-25T04:10:42;100402.88;;;9.63;67.36
46045;BME280;31781;54.094;13.428;2023-04-25T04:12:44;100408.31;;;9.63;67.66
46045;BME280;31781;54.094;13.428;2023-04-25T04:14:45;100407.28;;;9.64;67.49
46045;BME280;31781;54.094;13.428;2023-04-25T04:16:47;100418.94;;;9.65;67.87
46045;BME280;31781;54.094;13.428;2023-04-25T04:18:48;100413.53;;;9.65;67.94
46045;BME280;31781;54.094;13.428;2023-04-25T04:20:51;100408.31;;;9.63;67.93
46045;BME280;31781;54.094;13.428;2023-04-25T04:22:53;100407.28;;;9.64;68.04
46045;BME280;31781;54.094;13.428;2023-04-25T04:24:55;100414.38;;;9.65;68.51
46045;BME280;31781;54.094;13.428;2023-04-25T04:26:56;100415.19;;;9.66;68.40
46045;BME280;31781;54.094;13.428;2023-04-25T04:28:58;100415.84;;;9.68;68.41
46045;BME280;31781;54.094;13.428;2023-04-25T04:31:00;100415.84;;;9.68;67.94
46045;BME280;31781;54.094;13.428;2023-04-25T04:33:01;100421.69;;;9.71;67.88
46045;BME280;31781;54.094;13.428;2023-04-25T04:35:04;100418.75;;;9.73;68.91
46045;BME280;31781;54.094;13.428;2023-04-25T04:37:08;100419.56;;;9.73;68.36
46045;BME280;31781;54.094;13.428;2023-04-25T04:39:10;100421.47;;;9.73;68.26
46045;BME280;31781;54.094;13.428;2023-04-25T04:41:11;100431.06;;;9.75;68.30
46045;BME280;31781;54.094;13.428;2023-04-25T04:43:13;100424.16;;;9.73;69.15
46045;BME280;31781;54.094;13.428;2023-04-25T04:45:14;100427.72;;;9.73;68.14
46045;BME280;31781;54.094;13.428;2023-04-25T04:47:16;100436.50;;;9.75;68.96
46045;BME280;31781;54.094;13.428;2023-04-25T04:49:18;100440.03;;;9.76;68.38
46045;BME280;31781;54.094;13.428;2023-04-25T04:51:19;100437.13;;;9.77;68.36
46045;BME280;31781;54.094;13.428;2023-04-25T04:53:22;100437.13;;;9.77;68.85
46045;BME280;31781;54.094;13.428;2023-04-25T04:55:24;100442.56;;;9.77;68.74
46045;BME280;31781;54.094;13.428;2023-04-25T04:57:25;100435.03;;;9.79;68.44
46045;BME280;31781;54.094;13.428;2023-04-25T04:59:27;100442.13;;;9.81;68.18
46045;BME280;31781;54.094;13.428;2023-04-25T05:01:29;100440.47;;;9.79;67.81
46045;BME280;31781;54.094;13.428;2023-04-25T05:03:30;100436.69;;;9.81;66.89
46045;BME280;31781;54.094;13.428;2023-04-25T05:05:32;100443.41;;;9.78;66.44
46045;BME280;31781;54.094;13.428;2023-04-25T05:07:34;100439.66;;;9.79;66.08
46045;BME280;31781;54.094;13.428;2023-04-25T05:09:37;100441.28;;;9.80;66.17
46045;BME280;31781;54.094;13.428;2023-04-25T05:11:39;100446.97;;;9.78;65.62
46045;BME280;31781;54.094;13.428;2023-04-25T05:13:41;100442.38;;;9.79;65.86
46045;BME280;31781;54.094;13.428;2023-04-25T05:15:42;100448.00;;;9.77;65.64
46045;BME280;31781;54.094;13.428;2023-04-25T05:17:44;100451.31;;;9.79;66.03
46045;BME280;31781;54.094;13.428;2023-04-25T05:19:46;100452.41;;;9.78;65.58
46045;BME280;31781;54.094;13.428;2023-04-25T05:21:47;100448.84;;;9.78;65.63
46045;BME280;31781;54.094;13.428;2023-04-25T05:23:49;100449.69;;;9.78;65.07
46045;BME280;31781;54.094;13.428;2023-04-25T05:25:52;100458.66;;;9.79;64.25
46045;BME280;31781;54.094;13.428;2023-04-25T05:27:53;100456.75;;;9.79;63.58
46045;BME280;31781;54.094;13.428;2023-04-25T05:29:55;100453.00;;;9.81;63.04
46045;BME280;31781;54.094;13.428;2023-04-25T05:31:57;100455.53;;;9.82;63.20
46045;BME280;31781;54.094;13.428;2023-04-25T05:33:58;100462.41;;;9.85;63.34
46045;BME280;31781;54.094;13.428;2023-04-25T05:36:00;100466.81;;;9.86;63.11
46045;BME280;31781;54.094;13.428;2023-04-25T05:38:01;100468.06;;;9.90;63.36
46045;BME280;31781;54.094;13.428;2023-04-25T05:40:04;100469.50;;;9.92;62.33
46045;BME280;31781;54.094;13.428;2023-04-25T05:42:07;100473.66;;;9.95;61.92
46045;BME280;31781;54.094;13.428;2023-04-25T05:44:09;100476.19;;;9.96;61.42
46045;BME280;31781;54.094;13.428;2023-04-25T05:46:10;100476.19;;;9.96;61.91
46045;BME280;31781;54.094;13.428;2023-04-25T05:48:12;100477.88;;;9.97;61.77
46045;BME280;31781;54.094;13.428;2023-04-25T05:50:14;100470.75;;;9.96;61.32
46045;BME280;31781;54.094;13.428;2023-04-25T05:52:16;100470.75;;;9.96;60.58
46045;BME280;31781;54.094;13.428;2023-04-25T05:54:18;100477.47;;;9.94;61.05
46045;BME280;31781;54.094;13.428;2023-04-25T05:56:19;100483.69;;;9.94;59.69
46045;BME280;31781;54.094;13.428;2023-04-25T05:58:22;100482.66;;;9.95;59.93
46045;BME280;31781;54.094;13.428;2023-04-25T06:00:24;100491.06;;;9.94;59.65
46045;BME280;31781;54.094;13.428;2023-04-25T06:02:26;100495.66;;;9.93;59.49
46045;BME280;31781;54.094;13.428;2023-04-25T06:04:28;100500.66;;;9.90;57.83
46045;BME280;31781;54.094;13.428;2023-04-25T06:06:30;100501.91;;;9.87;57.93
46045;BME280;31781;54.094;13.428;2023-04-25T06:08:32;100519.69;;;9.90;58.37
46045;BME280;31781;54.094;13.428;2023-04-25T06:10:33;100513.19;;;9.91;58.07
46045;BME280;31781;54.094;13.428;2023-04-25T06:12:35;100498.78;;;9.90;58.05
46045;BME280;31781;54.094;13.428;2023-04-25T06:14:38;100504.63;;;9.94;58.38
46045;BME280;31781;54.094;13.428;2023-04-25T06:16:40;100509.22;;;9.93;58.60
46045;BME280;31781;54.094;13.428;2023-04-25T06:18:41;100507.34;;;9.94;58.62
46045;BME280;31781;54.094;13.428;2023-04-25T06:20:43;100497.09;;;9.96;58.80
46045;BME280;31781;54.094;13.428;2023-04-25T06:22:44;100506.28;;;9.95;59.16
46045;BME280;31781;54.094;13.428;2023-04-25T06:24:46;100515.91;;;9.97;58.75
46045;BME280;31781;54.094;13.428;2023-04-25T06:26:47;100524.06;;;9.97;58.69
46045;BME280;31781;54.094;13.428;2023-04-25T06:28:49;100511.09;;;9.99;59.23
46045;BME280;31781;54.094;13.428;2023-04-25T06:30:52;100518.81;;;10.02;59.43
46045;BME280;31781;54.094;13.428;2023-04-25T06:32:54;100515.69;;;10.05;59.16
46045;BME280;31781;54.094;13.428;2023-04-25T06:34:56;100516.31;;;10.07;58.89
46045;BME280;31781;54.094;13.428;2023-04-25T06:36:57;100514.22;;;10.09;58.11
46045;BME280;31781;54.094;13.428;2023-04-25T06:38:59;100512.97;;;10.12;57.43
46045;BME280;31781;54.094;13.428;2023-04-25T06:41:01;100510.03;;;10.13;57.65
46045;BME280;31781;54.094;13.428;2023-04-25T06:43:02;100511.53;;;10.16;56.48
46045;BME280;31781;54.094;13.428;2023-04-25T06:45:05;100524.06;;;10.17;56.01
46045;BME280;31781;54.094;13.428;2023-04-25T06:47:08;100511.09;;;10.19;55.82
46045;BME280;31781;54.094;13.428;2023-04-25T06:49:10;100517.38;;;10.19;55.55
46045;BME280;31781;54.094;13.428;2023-04-25T06:51:11;100518.00;;;10.21;55.11
46045;BME280;31781;54.094;13.428;2023-04-25T06:53:13;100522.16;;;10.24;54.47
46045;BME280;31781;54.094;13.428;2023-04-25T06:55:15;100522.16;;;10.24;54.17
46045;BME280;31781;54.094;13.428;2023-04-25T06:57:17;100536.41;;;10.26;53.82
46045;BME280;31781;54.094;13.428;2023-04-25T06:59:18;100524.25;;;10.29;54.10
46045;BME280;31781;54.094;13.428;2023-04-25T07:01:20;100531.97;;;10.32;54.53
46045;BME280;31781;54.094;13.428;2023-04-25T07:03:23;100530.09;;;10.32;53.91
46045;BME280;31781;54.094;13.428;2023-04-25T07:05:25;100528.88;;;10.35;54.03
46045;BME280;31781;54.094;13.428;2023-04-25T07:07:27;100529.66;;;10.35;53.23
46045;BME280;31781;54.094;13.428;2023-04-25T07:09:28;100534.06;;;10.36;53.13
46045;BME280;31781;54.094;13.428;2023-04-25T07:11:30;100535.75;;;10.37;51.96
46045;BME280;31781;54.094;13.428;2023-04-25T07:13:32;100543.25;;;10.35;51.33
46045;BME280;31781;54.094;13.428;2023-04-25T07:15:34;100535.09;;;10.35;51.26
46045;BME280;31781;54.094;13.428;2023-04-25T07:17:35;100542.41;;;10.48;51.46
46045;BME280;31781;54.094;13.428;2023-04-25T07:19:38;100536.09;;;10.54;50.87
46045;BME280;31781;54.094;13.428;2023-04-25T07:21:40;100540.31;;;10.56;51.66
46045;BME280;31781;54.094;13.428;2023-04-25T07:23:42;100541.56;;;10.60;51.12
46045;BME280;31781;54.094;13.428;2023-04-25T07:25:44;100541.72;;;10.65;50.92
46045;BME280;31781;54.094;13.428;2023-04-25T07:27:45;100546.13;;;10.66;50.01
46045;BME280;31781;54.094;13.428;2023-04-25T07:29:50;100544.00;;;10.68;49.74
46045;BME280;31781;54.094;13.428;2023-04-25T07:31:51;100548.63;;;10.68;49.86
46045;BME280;31781;54.094;13.428;2023-04-25T07:33:53;100550.72;;;10.66;49.51
46045;BME280;31781;54.094;13.428;2023-04-25T07:35:59;100552.59;;;10.65;51.29
46045;BME280;31781;54.094;13.428;2023-04-25T07:38:01;100561.00;;;10.64;51.42
46045;BME280;31781;54.094;13.428;2023-04-25T07:40:04;100556.59;;;10.63;51.28
46045;BME280;31781;54.094;13.428;2023-04-25T07:42:06;100564.97;;;10.61;51.57
46045;BME280;31781;54.094;13.428;2023-04-25T07:44:07;100560.78;;;10.59;51.55
46045;BME280;31781;54.094;13.428;2023-04-25T07:46:09;100561.81;;;10.64;51.82
46045;BME280;31781;54.094;13.428;2023-04-25T07:48:11;100571.47;;;10.60;50.91
46045;BME280;31781;54.094;13.428;2023-04-25T07:50:13;100569.56;;;10.61;50.86
46045;BME280;31781;54.094;13.428;2023-04-25T07:52:16;100571.03;;;10.63;50.66
46045;BME280;31781;54.094;13.428;2023-04-25T07:54:17;100571.88;;;10.64;50.21
46045;BME280;31781;54.094;13.428;2023-04-25T07:56:19;100574.38;;;10.65;50.00
46045;BME280;31781;54.094;13.428;2023-04-25T07:58:21;100575.22;;;10.66;49.81
46045;BME280;31781;54.094;13.428;2023-04-25T08:00:22;100578.78;;;10.66;49.87
46045;BME280;31781;54.094;13.428;2023-04-25T08:02:24;100568.94;;;10.65;49.40
46045;BME280;31781;54.094;13.428;2023-04-25T08:04:26;100590.06;;;10.70;50.05
46045;BME280;31781;54.094;13.428;2023-04-25T08:06:28;100579.16;;;10.77;50.04
46045;BME280;31781;54.094;13.428;2023-04-25T08:08:31;100575.81;;;10.74;49.09
46045;BME280;31781;54.094;13.428;2023-04-25T08:10:33;100582.91;;;10.75;47.58
46045;BME280;31781;54.094;13.428;2023-04-25T08:12:35;100589.19;;;10.76;47.45
46045;BME280;31781;54.094;13.428;2023-04-25T08:14:36;100590.03;;;10.77;48.37
46045;BME280;31781;54.094;13.428;2023-04-25T08:16:39;100592.56;;;10.78;48.50
46045;BME280;31781;54.094;13.428;2023-04-25T08:18:40;100592.56;;;10.78;48.18
46045;BME280;31781;54.094;13.428;2023-04-25T08:20:42;100605.09;;;10.79;47.50
46045;BME280;31781;54.094;13.428;2023-04-25T08:22:43;100603.00;;;10.81;47.56
46045;BME280;31781;54.094;13.428;2023-04-25T08:24:47;100608.25;;;10.83;47.23
46045;BME280;31781;54.094;13.428;2023-04-25T08:26:49;100606.56;;;10.82;46.04
46045;BME280;31781;54.094;13.428;2023-04-25T08:28:50;100604.69;;;10.82;46.41
46045;BME280;31781;54.094;13.428;2023-04-25T08:30:53;100609.06;;;10.83;46.91
46045;BME280;31781;54.094;13.428;2023-04-25T08:32:54;100621.63;;;10.84;46.50
46045;BME280;31781;54.094;13.428;2023-04-25T08:34:56;100614.50;;;10.83;47.14
46045;BME280;31781;54.094;13.428;2023-04-25T08:36:58;100619.56;;;10.86;47.31
46045;BME280;31781;54.094;13.428;2023-04-25T08:39:00;100622.03;;;10.88;47.64
46045;BME280;31781;54.094;13.428;2023-04-25T08:41:03;100632.94;;;10.88;46.86
46045;BME280;31781;54.094;13.428;2023-04-25T08:43:07;100625.41;;;10.90;47.07
46045;BME280;31781;54.094;13.428;2023-04-25T08:45:09;100623.28;;;10.92;47.46
46045;BME280;31781;54.094;13.428;2023-04-25T08:47:11;100627.25;;;10.96;46.69
46045;BME280;31781;54.094;13.428;2023-04-25T08:49:12;100625.97;;;10.98;46.61
46045;BME280;31781;54.094;13.428;2023-04-25T08:51:17;100633.31;;;10.98;46.72
46045;BME280;31781;54.094;13.428;2023-04-25T08:53:26;100641.06;;;11.01;46.68
46045;BME280;31781;54.094;13.428;2023-04-25T08:55:30;100628.69;;;10.98;45.42
46045;BME280;31781;54.094;13.428;2023-04-25T08:57:33;100649.44;;;10.99;46.44
46045;BME280;31781;54.094;13.428;2023-04-25T08:59:36;100652.16;;;10.99;46.62
46045;BME280;31781;54.094;13.428;2023-04-25T09:01:39;100648.59;;;10.99;46.77
46045;BME280;31781;54.094;13.428;2023-04-25T09:03:41;100645.88;;;10.99;46.69
46045;BME280;31781;54.094;13.428;2023-04-25T09:05:44;100648.59;;;10.99;46.76
46045;BME280;31781;54.094;13.428;2023-04-25T09:07:45;100653.00;;;11.00;46.62
46045;BME280;31781;54.094;13.428;2023-04-25T09:09:50;100661.59;;;10.97;46.12
46045;BME280;31781;54.094;13.428;2023-04-25T09:11:54;100665.56;;;10.94;45.96
46045;BME280;31781;54.094;13.428;2023-04-25T09:14:13;100665.56;;;10.94;47.22
46045;BME280;31781;54.094;13.428;2023-04-25T09:16:15;100667.88;;;10.91;46.34
46045;BME280;31781;54.094;13.428;2023-04-25T09:18:23;100685.28;;;10.90;46.98
46045;BME280;31781;54.094;13.428;2023-04-25T09:20:30;100678.59;;;10.86;46.55
46045;BME280;31781;54.094;13.428;2023-04-25T09:22:36;100682.34;;;10.85;46.30
46045;BME280;31781;54.094;13.428;2023-04-25T09:24:39;100697.00;;;10.84;46.36
46045;BME280;31781;54.094;13.428;2023-04-25T09:26:41;100694.50;;;10.82;45.98
46045;BME280;31781;54.094;13.428;2023-04-25T09:28:43;100688.41;;;10.80;45.69
46045;BME280;31781;54.094;13.428;2023-04-25T09:30:46;100698.28;;;10.81;46.17
46045;BME280;31781;54.094;13.428;2023-04-25T09:32:47;100700.78;;;10.83;46.76
46045;BME280;31781;54.094;13.428;2023-04-25T09:34:51;100694.69;;;10.87;47.49
46045;BME280;31781;54.094;13.428;2023-04-25T09:36:54;100702.22;;;10.92;46.47
46045;BME280;31781;54.094;13.428;2023-04-25T09:38:55;100692.38;;;10.97;45.42
46045;BME280;31781;54.094;13.428;2023-04-25T09:40:57;100690.69;;;11.03;45.26
46045;BME280;31781;54.094;13.428;2023-04-25T09:42:59;100692.78;;;11.07;43.94
46045;BME280;31781;54.094;13.428;2023-04-25T09:45:01;100695.25;;;11.09;43.84
46045;BME280;31781;54.094;13.428;2023-04-25T09:47:09;100714.31;;;11.09;42.56
46045;BME280;31781;54.094;13.428;2023-04-25T09:49:11;100693.19;;;11.11;42.57
46045;BME280;31781;54.094;13.428;2023-04-25T09:51:15;100696.09;;;11.09;41.61
46045;BME280;31781;54.094;13.428;2023-04-25T09:53:17;100704.28;;;11.09;41.08
46045;BME280;31781;54.094;13.428;2023-04-25T09:55:19;100705.34;;;11.08;41.05
46045;BME280;31781;54.094;13.428;2023-04-25T09:57:23;100717.88;;;11.09;41.57
46045;BME280;31781;54.094;13.428;2023-04-25T09:59:25;100712.44;;;11.09;41.18
46045;BME280;31781;54.094;13.428;2023-04-25T10:01:27;100717.88;;;11.09;41.08
46045;BME280;31781;54.094;13.428;2023-04-25T10:15:11;100757.91;;;11.02;41.36
46045;BME280;31781;54.094;13.428;2023-04-25T10:17:14;100741.38;;;10.97;41.99
46045;BME280;31781;54.094;13.428;2023-04-25T10:19:16;100737.19;;;10.95;41.79
46045;BME280;31781;54.094;13.428;2023-04-25T10:21:19;100742.63;;;10.95;42.28
46045;BME280;31781;54.094;13.428;2023-04-25T10:23:23;100746.19;;;10.95;42.00
46045;BME280;31781;54.094;13.428;2023-04-25T10:25:25;100729.84;;;10.95;41.66
46045;BME280;31781;54.094;13.428;2023-04-25T10:27:28;100739.88;;;11.01;41.54
46045;BME280;31781;54.094;13.428;2023-04-25T10:29:30;100733.81;;;11.06;40.23
46045;BME280;31781;54.094;13.428;2023-04-25T10:31:33;100736.75;;;11.11;40.89
46045;BME280;31781;54.094;13.428;2023-04-25T10:33:45;100736.94;;;11.16;41.00
46045;BME280;31781;54.094;13.428;2023-04-25T10:35:47;100729.41;;;11.18;41.04
46045;BME280;31781;54.094;13.428;2023-04-25T10:38:18;100739.00;;;11.27;42.54
46045;BME280;31781;54.094;13.428;2023-04-25T10:40:36;100747.16;;;11.27;41.32
46045;BME280;31781;54.094;13.428;2023-04-25T10:42:40;100744.03;;;11.30;42.02
46045;BME280;31781;54.094;13.428;2023-04-25T10:45:01;100733.75;;;11.32;41.72